createdAt,value
2022-11-12T00:01:13.764Z,21.48
2022-11-12T00:03:59.162Z,22.35
2022-11-12T00:06:44.725Z,15.57
2022-11-12T00:09:30.557Z,12.88
2022-11-12T00:12:15.941Z,20.40
2022-11-12T00:15:01.751Z,21.67
2022-11-12T00:17:47.579Z,20.80
2022-11-12T00:20:33.530Z,18.88
2022-11-12T00:23:18.844Z,16.85
2022-11-12T00:26:04.471Z,18.73
2022-11-12T00:28:49.772Z,11.73
2022-11-12T00:31:35.053Z,9.93
2022-11-12T00:34:20.530Z,14.25
2022-11-12T00:37:06.164Z,13.48
2022-11-12T00:39:51.938Z,11.63
2022-11-12T00:42:37.382Z,12.05
2022-11-12T00:45:22.930Z,10.43
2022-11-12T00:48:08.386Z,14.50
2022-11-12T00:51:03.820Z,11.20
2022-11-12T00:53:50.670Z,15.15
2022-11-12T00:56:36.800Z,11.75
2022-11-12T00:59:22.673Z,14.90
2022-11-12T01:02:08.209Z,13.70
2022-11-12T01:04:53.663Z,13.88
2022-11-12T01:07:39.093Z,19.55
2022-11-12T01:10:24.733Z,17.73
2022-11-12T01:13:10.499Z,17.48
2022-11-12T01:15:56.124Z,25.17
2022-11-12T01:18:42.082Z,21.63
2022-11-12T01:21:31.453Z,20.98
2022-11-12T01:24:16.981Z,18.60
2022-11-12T01:27:02.455Z,15.10
2022-11-12T01:29:47.972Z,13.18
2022-11-12T01:32:37.498Z,15.77
2022-11-12T01:35:23.026Z,18.60
2022-11-12T01:38:08.605Z,17.40
2022-11-12T01:40:54.557Z,15.60
2022-11-12T01:43:40.288Z,19.05
2022-11-12T01:46:29.951Z,17.55
2022-11-12T01:49:33.468Z,22.42
2022-11-12T01:52:26.804Z,14.60
2022-11-12T01:55:19.184Z,19.85
2022-11-12T01:58:11.038Z,21.08
2022-11-12T02:00:57.692Z,18.02
2022-11-12T02:03:43.499Z,14.93
2022-11-12T02:06:29.570Z,16.38
2022-11-12T02:09:15.301Z,20.10
2022-11-12T02:12:01.589Z,13.68
2022-11-12T02:14:47.342Z,15.30
2022-11-12T02:17:33.665Z,14.30
2022-11-12T02:20:19.838Z,13.15
2022-11-12T02:23:08.275Z,18.55
2022-11-12T02:25:53.657Z,14.63
2022-11-12T02:28:39.041Z,14.30
2022-11-12T02:31:24.387Z,14.73
2022-11-12T02:34:10.000Z,17.15
2022-11-12T02:36:55.378Z,11.63
2022-11-12T02:39:40.759Z,15.75
2022-11-12T02:42:26.286Z,9.52
2022-11-12T02:45:11.885Z,12.05
2022-11-12T02:47:57.951Z,10.05
2022-11-12T02:50:43.574Z,10.40
2022-11-12T02:53:29.222Z,12.35
2022-11-12T02:56:15.353Z,15.98
2022-11-12T02:59:01.425Z,17.52
2022-11-12T03:01:47.168Z,19.05
2022-11-12T03:04:32.693Z,15.10
2022-11-12T03:07:18.340Z,22.35
2022-11-12T03:10:05.756Z,15.05
2022-11-12T03:12:51.656Z,13.43
2022-11-12T03:15:37.381Z,17.05
2022-11-12T03:18:23.234Z,10.13
2022-11-12T03:21:08.930Z,12.35
2022-11-12T03:23:54.233Z,8.57
2022-11-12T03:26:39.728Z,9.45
2022-11-12T03:29:26.387Z,10.60
2022-11-12T03:32:12.031Z,14.85
2022-11-12T03:34:57.414Z,13.82
2022-11-12T03:37:42.947Z,18.33
2022-11-12T03:40:29.868Z,10.95
2022-11-12T03:43:15.177Z,12.38
2022-11-12T03:46:02.009Z,11.38
2022-11-12T03:48:47.671Z,11.80
2022-11-12T03:51:33.126Z,13.90
2022-11-12T03:54:20.104Z,11.73
2022-11-12T03:57:05.402Z,8.73
2022-11-12T03:59:50.931Z,9.48
2022-11-12T04:02:36.874Z,8.77
2022-11-12T04:05:41.986Z,11.93
2022-11-12T04:08:36.595Z,13.35
2022-11-12T04:11:22.375Z,11.10
2022-11-12T04:14:07.946Z,9.30
2022-11-12T04:17:12.312Z,11.70
2022-11-12T04:20:16.977Z,12.55
2022-11-12T04:23:02.812Z,14.20
2022-11-12T04:26:07.700Z,15.77
2022-11-12T04:29:12.349Z,14.88
2022-11-12T04:32:00.400Z,13.57
2022-11-12T04:34:46.222Z,15.77
2022-11-12T04:37:44.442Z,13.35
2022-11-12T04:40:49.971Z,13.95
2022-11-12T04:43:54.278Z,13.63
2022-11-12T04:46:40.109Z,12.80
2022-11-12T04:49:25.612Z,9.05
2022-11-12T04:52:11.090Z,12.05
2022-11-12T04:54:57.167Z,8.55
2022-11-12T04:57:42.916Z,14.25
2022-11-12T05:00:28.559Z,9.75
2022-11-12T05:03:15.096Z,9.13
2022-11-12T05:06:03.816Z,9.30
2022-11-12T05:08:49.190Z,8.77
2022-11-12T05:11:35.089Z,10.73
2022-11-12T05:14:22.021Z,9.02
2022-11-12T05:17:07.677Z,9.23
2022-11-12T05:19:53.224Z,8.63
2022-11-12T05:22:47.756Z,10.65
2022-11-12T05:25:39.989Z,7.53
2022-11-12T05:28:25.911Z,9.45
2022-11-12T05:31:11.517Z,8.82
2022-11-12T05:33:57.286Z,8.95
2022-11-12T05:36:42.870Z,8.32
2022-11-12T05:39:28.685Z,14.60
2022-11-12T05:42:14.894Z,10.23
2022-11-12T05:45:00.606Z,7.65
2022-11-12T05:47:46.350Z,6.20
2022-11-12T05:50:39.881Z,5.55
2022-11-12T05:53:37.296Z,7.32
2022-11-12T05:56:22.743Z,5.78
2022-11-12T05:59:10.957Z,8.52
2022-11-12T06:01:56.847Z,8.40
2022-11-12T06:04:42.582Z,15.07
2022-11-12T06:07:28.104Z,13.45
2022-11-12T06:10:19.082Z,13.43
2022-11-12T06:15:54.089Z,8.13
2022-11-12T06:18:39.625Z,8.68
2022-11-12T06:21:27.674Z,9.50
2022-11-12T06:24:13.536Z,9.65
2022-11-12T06:26:59.617Z,10.55
2022-11-12T06:29:45.129Z,13.05
2022-11-12T06:32:30.549Z,11.93
2022-11-12T06:35:18.063Z,9.05
2022-11-12T06:38:03.917Z,7.93
2022-11-12T06:40:49.462Z,12.80
2022-11-12T06:43:35.726Z,11.05
2022-11-12T06:46:21.578Z,14.02
2022-11-12T06:49:07.343Z,10.48
2022-11-12T06:51:53.191Z,8.73
2022-11-12T06:54:38.995Z,6.45
2022-11-12T06:57:24.618Z,7.45
2022-11-12T07:00:11.855Z,8.95
2022-11-12T07:02:57.978Z,8.85
2022-11-12T07:05:43.950Z,8.75
2022-11-12T07:08:29.534Z,9.32
2022-11-12T07:11:16.632Z,9.75
2022-11-12T07:14:02.484Z,6.95
2022-11-12T07:16:48.030Z,9.55
2022-11-12T07:19:33.604Z,9.02
2022-11-12T07:22:19.357Z,8.82
2022-11-12T07:25:05.825Z,9.70
2022-11-12T07:27:53.206Z,11.40
2022-11-12T07:30:39.404Z,11.20
2022-11-12T07:33:25.945Z,11.90
2022-11-12T07:36:15.019Z,14.95
2022-11-12T07:39:01.166Z,15.85
2022-11-12T07:41:46.788Z,15.27
2022-11-12T07:44:32.731Z,15.82
2022-11-12T07:47:21.323Z,14.48
2022-11-12T07:50:07.258Z,14.00
2022-11-12T07:52:52.987Z,34.53
2022-11-12T07:55:38.350Z,13.82
2022-11-12T07:58:24.918Z,18.40
2022-11-12T08:01:31.941Z,19.30
2022-11-12T08:04:18.663Z,17.65
2022-11-12T08:07:04.539Z,14.35
2022-11-12T08:09:50.344Z,15.45
2022-11-12T08:12:36.124Z,16.27
2022-11-12T08:15:21.953Z,17.40
2022-11-12T08:18:07.538Z,13.48
2022-11-12T08:20:53.378Z,14.07
2022-11-12T08:23:38.957Z,16.77
2022-11-12T08:26:26.414Z,13.80
2022-11-12T08:29:11.838Z,11.18
2022-11-12T08:31:57.436Z,13.05
2022-11-12T08:34:43.752Z,14.65
2022-11-12T08:37:29.744Z,16.23
2022-11-12T08:40:15.729Z,14.40
2022-11-12T08:43:10.012Z,18.90
2022-11-12T08:45:59.742Z,14.82
2022-11-12T08:48:45.140Z,15.68
2022-11-12T08:51:30.659Z,13.98
2022-11-12T08:54:16.039Z,15.18
2022-11-12T08:57:01.551Z,15.00
2022-11-12T08:59:47.341Z,13.20
2022-11-12T09:02:32.693Z,16.55
2022-11-12T09:05:18.160Z,17.45
2022-11-12T09:08:10.137Z,14.52
2022-11-12T09:10:58.301Z,16.20
2022-11-12T09:13:43.730Z,19.98
2022-11-12T09:16:29.483Z,14.82
2022-11-12T09:19:15.310Z,15.95
2022-11-12T09:22:00.776Z,17.70
2022-11-12T09:24:46.282Z,14.63
2022-11-12T09:27:31.725Z,14.80
2022-11-12T09:30:17.365Z,18.65
2022-11-12T09:33:02.858Z,14.27
2022-11-12T09:35:48.780Z,17.35
2022-11-12T09:38:34.527Z,15.40
2022-11-12T09:41:30.028Z,18.80
2022-11-12T09:44:22.119Z,16.02
2022-11-12T09:47:21.012Z,19.77
2022-11-12T09:50:27.904Z,17.58
2022-11-12T09:53:32.899Z,16.48
2022-11-12T09:56:24.491Z,16.35
2022-11-12T09:59:13.581Z,19.08
2022-11-12T10:02:47.951Z,18.17
2022-11-12T10:05:41.451Z,19.20
2022-11-12T10:09:00.831Z,16.70
2022-11-12T10:12:22.595Z,14.15
2022-11-12T10:16:08.719Z,17.50
2022-11-12T10:19:16.575Z,22.85
2022-11-12T10:22:13.740Z,16.33
2022-11-12T10:25:14.719Z,16.10
2022-11-12T10:28:12.702Z,13.65
2022-11-12T10:31:10.987Z,18.08
2022-11-12T10:34:16.678Z,16.05
2022-11-12T10:37:15.430Z,18.30
2022-11-12T10:40:20.982Z,15.30
2022-11-12T10:43:18.925Z,14.25
2022-11-12T10:46:29.015Z,12.65
2022-11-12T10:49:14.368Z,15.70
2022-11-12T10:52:00.696Z,15.50
2022-11-12T10:54:50.935Z,14.00
2022-11-12T10:57:39.540Z,14.65
2022-11-12T11:00:25.487Z,18.63
2022-11-12T11:03:22.466Z,12.30
2022-11-12T11:06:22.935Z,12.35
2022-11-12T11:09:17.319Z,11.27
2022-11-12T11:12:03.523Z,11.40
2022-11-12T11:15:18.228Z,10.35
2022-11-12T11:18:04.669Z,12.57
2022-11-12T11:21:14.738Z,12.30
2022-11-12T11:24:20.786Z,11.85
2022-11-12T11:27:48.700Z,10.18
2022-11-12T11:30:35.214Z,11.10
2022-11-12T11:33:58.322Z,9.05
2022-11-12T11:37:16.349Z,33.20
2022-11-12T11:40:20.250Z,13.35
2022-11-12T11:43:58.246Z,9.75
2022-11-12T11:46:59.233Z,11.60
2022-11-12T11:49:56.897Z,10.45
2022-11-12T11:53:19.506Z,10.73
2022-11-12T11:56:28.817Z,13.02
2022-11-12T11:59:56.457Z,15.07
2022-11-12T12:03:22.490Z,11.00
2022-11-12T12:06:36.677Z,13.07
2022-11-12T12:09:46.172Z,8.48
2022-11-12T12:12:50.797Z,7.70
2022-11-12T12:16:07.076Z,8.20
2022-11-12T12:19:04.838Z,7.82
2022-11-12T12:21:51.824Z,9.63
2022-11-12T12:24:56.293Z,10.40
2022-11-12T12:28:00.785Z,9.75
2022-11-12T12:30:51.996Z,9.32
2022-11-12T12:34:15.416Z,10.10
2022-11-12T12:37:27.673Z,7.80
2022-11-12T12:41:06.220Z,9.15
2022-11-12T12:44:04.049Z,7.10
2022-11-12T12:47:01.040Z,8.82
2022-11-12T12:49:49.010Z,7.93
2022-11-12T12:53:02.871Z,10.95
2022-11-12T12:55:51.724Z,11.80
2022-11-12T12:58:40.529Z,8.23
2022-11-12T13:01:34.167Z,6.82
2022-11-12T13:04:55.509Z,8.70
2022-11-12T13:07:46.371Z,10.55
2022-11-12T13:10:44.528Z,6.60
2022-11-12T13:13:38.582Z,12.23
2022-11-12T13:16:52.492Z,9.25
2022-11-12T13:19:53.368Z,8.77
2022-11-12T13:22:38.717Z,8.93
2022-11-12T13:25:28.804Z,7.43
2022-11-12T13:28:14.403Z,9.68
2022-11-12T13:31:03.739Z,7.90
2022-11-12T13:33:49.574Z,7.85
2022-11-12T13:36:35.694Z,10.98
2022-11-12T13:39:24.098Z,8.50
2022-11-12T13:42:34.741Z,8.10
2022-11-12T13:45:25.330Z,7.45
2022-11-12T13:48:36.521Z,10.23
2022-11-12T13:51:52.087Z,7.50
2022-11-12T13:54:39.120Z,10.45
2022-11-12T13:57:30.194Z,10.18
2022-11-12T14:00:20.714Z,10.10
2022-11-12T14:03:07.891Z,8.60
2022-11-12T14:05:53.860Z,12.05
2022-11-12T14:08:57.658Z,11.07
2022-11-12T14:12:17.389Z,8.35
2022-11-12T14:15:18.608Z,7.65
2022-11-12T14:18:30.829Z,12.15
2022-11-12T14:21:18.464Z,7.88
2022-11-12T14:24:05.213Z,8.07
2022-11-12T14:26:51.009Z,9.20
2022-11-12T14:29:41.106Z,10.02
2022-11-12T14:32:37.125Z,9.82
2022-11-12T14:35:29.958Z,9.27
2022-11-12T14:38:53.937Z,11.48
2022-11-12T14:41:42.809Z,10.73
2022-11-12T14:44:37.338Z,7.10
2022-11-12T14:47:24.291Z,9.98
2022-11-12T14:50:18.080Z,10.45
2022-11-12T14:53:20.477Z,9.50
2022-11-12T14:56:32.625Z,7.47
2022-11-12T14:59:21.527Z,6.97
2022-11-12T15:02:42.681Z,7.97
2022-11-12T15:05:27.480Z,6.70
2022-11-12T15:08:13.857Z,7.43
2022-11-12T15:11:24.607Z,7.35
2022-11-12T15:14:21.779Z,9.88
2022-11-12T15:17:07.350Z,5.45
2022-11-12T15:19:52.790Z,8.00
2022-11-12T15:22:38.443Z,6.90
2022-11-12T15:25:26.779Z,9.18
2022-11-12T15:28:25.269Z,7.03
2022-11-12T15:31:22.043Z,8.05
2022-11-12T15:34:38.872Z,7.45
2022-11-12T15:37:30.749Z,6.32
2022-11-12T15:40:21.945Z,7.03
2022-11-12T15:43:32.025Z,6.33
2022-11-12T15:46:20.611Z,9.10
2022-11-12T15:49:13.272Z,9.32
2022-11-12T15:52:01.765Z,7.70
2022-11-12T15:54:47.500Z,7.75
2022-11-12T15:57:49.333Z,5.78
2022-11-12T16:00:37.358Z,9.80
2022-11-12T16:03:23.143Z,6.18
2022-11-12T16:06:12.263Z,4.72
2022-11-12T16:08:57.896Z,8.30
2022-11-12T16:11:43.439Z,8.57
2022-11-12T16:14:28.988Z,8.15
2022-11-12T16:17:19.037Z,6.32
2022-11-12T16:20:18.451Z,9.00
2022-11-12T16:23:04.945Z,8.27
2022-11-12T16:25:50.448Z,7.97
2022-11-12T16:28:36.260Z,6.47
2022-11-12T16:31:22.035Z,9.40
2022-11-12T16:34:08.130Z,16.00
2022-11-12T16:36:53.599Z,12.18
2022-11-12T16:39:39.358Z,11.38
2022-11-12T16:42:24.704Z,8.15
2022-11-12T16:45:10.416Z,11.25
2022-11-12T16:47:56.311Z,9.30
2022-11-12T16:50:41.763Z,6.43
2022-11-12T16:53:27.550Z,5.80
2022-11-12T16:56:17.734Z,8.07
2022-11-12T16:59:04.492Z,5.35
2022-11-12T17:01:49.869Z,5.10
2022-11-12T17:04:35.425Z,5.68
2022-11-12T17:07:21.045Z,8.23
2022-11-12T17:10:06.961Z,7.82
2022-11-12T17:12:52.761Z,5.15
2022-11-12T17:15:38.358Z,3.90
2022-11-12T17:18:23.640Z,11.07
2022-11-12T17:21:16.261Z,7.25
2022-11-12T17:26:47.443Z,5.05
2022-11-12T17:29:32.825Z,3.33
2022-11-12T17:32:18.612Z,44.55
2022-11-12T17:35:04.618Z,20.40
2022-11-12T17:37:51.378Z,17.98
2022-11-12T17:40:36.922Z,17.08
2022-11-12T17:43:22.445Z,4.18
2022-11-12T17:46:09.826Z,12.38
2022-11-12T17:48:56.542Z,11.35
2022-11-12T17:51:42.138Z,6.20
2022-11-12T17:54:27.674Z,5.10
2022-11-12T17:57:13.091Z,13.00
2022-11-12T17:59:58.524Z,7.20
2022-11-12T18:02:44.027Z,7.43
2022-11-12T18:05:30.476Z,7.03
2022-11-12T18:08:16.114Z,10.85
2022-11-12T18:11:02.985Z,8.10
2022-11-12T18:13:48.449Z,7.10
2022-11-12T18:16:33.896Z,9.88
2022-11-12T18:19:19.457Z,8.52
2022-11-12T18:22:04.880Z,9.93
2022-11-12T18:24:50.652Z,6.60
2022-11-12T18:27:37.424Z,5.82
2022-11-12T18:30:23.226Z,9.93
2022-11-12T18:33:08.910Z,7.90
2022-11-12T18:36:17.961Z,13.98
2022-11-12T18:39:05.072Z,24.13
2022-11-12T18:41:51.322Z,38.80
2022-11-12T18:44:37.182Z,34.35
2022-11-12T18:47:22.605Z,24.92
2022-11-12T18:50:09.078Z,26.65
2022-11-12T18:52:54.700Z,24.50
2022-11-12T18:55:40.184Z,19.73
2022-11-12T18:58:29.417Z,17.55
2022-11-12T19:01:23.100Z,18.40
2022-11-12T19:04:11.005Z,13.38
2022-11-12T19:06:56.872Z,13.93
2022-11-12T19:09:42.438Z,17.25
2022-11-12T19:12:28.862Z,16.65
2022-11-12T19:15:14.267Z,16.73
2022-11-12T19:18:04.089Z,15.02
2022-11-12T19:20:49.734Z,15.77
2022-11-12T19:23:35.563Z,14.70
2022-11-12T19:26:22.354Z,15.48
2022-11-12T19:29:07.676Z,13.48
2022-11-12T19:31:53.016Z,11.98
2022-11-12T19:34:38.567Z,16.15
2022-11-12T19:37:33.431Z,13.80
2022-11-12T19:40:20.047Z,10.43
2022-11-12T19:43:05.427Z,10.88
2022-11-12T19:45:50.937Z,7.63
2022-11-12T19:48:36.670Z,7.35
2022-11-12T19:51:22.251Z,8.77
2022-11-12T19:54:08.410Z,16.25
2022-11-12T19:56:53.726Z,10.15
2022-11-12T19:59:42.475Z,9.50
2022-11-12T20:02:29.056Z,9.60
2022-11-12T20:05:14.427Z,15.23
2022-11-12T20:07:59.938Z,18.90
2022-11-12T20:10:45.731Z,15.88
2022-11-12T20:13:31.814Z,32.00
2022-11-12T20:16:24.880Z,34.45
2022-11-12T20:19:11.336Z,32.70
2022-11-12T20:21:57.039Z,25.88
2022-11-12T20:24:42.675Z,15.35
2022-11-12T20:27:28.202Z,14.75
2022-11-12T20:30:13.688Z,16.33
2022-11-12T20:32:59.345Z,16.13
2022-11-12T20:35:45.449Z,19.40
2022-11-12T20:38:31.325Z,13.60
2022-11-12T20:41:20.282Z,11.55
2022-11-12T20:44:06.318Z,4.55
2022-11-12T20:46:51.707Z,8.30
2022-11-12T20:49:37.157Z,12.57
2022-11-12T20:52:22.537Z,15.75
2022-11-12T20:55:08.272Z,27.55
2022-11-12T20:57:54.406Z,28.52
2022-11-12T21:00:40.740Z,28.95
2022-11-12T21:03:26.533Z,22.60
2022-11-12T21:06:19.686Z,15.48
2022-11-12T21:09:05.010Z,14.32
2022-11-12T21:11:50.534Z,9.75
2022-11-12T21:14:35.947Z,13.68
2022-11-12T21:17:21.326Z,9.30
2022-11-12T21:20:07.535Z,18.15
2022-11-12T21:22:52.822Z,11.13
2022-11-12T21:25:39.326Z,9.25
2022-11-12T21:28:25.124Z,11.00
2022-11-12T21:31:17.863Z,15.18
2022-11-12T21:36:50.070Z,8.57
2022-11-12T21:39:35.514Z,11.30
2022-11-12T21:42:20.895Z,13.55
2022-11-12T21:45:06.993Z,14.02
2022-11-12T21:47:53.700Z,13.07
2022-11-12T21:50:39.343Z,11.00
2022-11-12T21:53:25.075Z,9.15
2022-11-12T21:56:17.750Z,9.00
2022-11-12T22:01:50.172Z,8.32
2022-11-12T22:04:35.633Z,8.07
2022-11-12T22:07:21.056Z,10.52
2022-11-12T22:10:07.269Z,11.32
2022-11-12T22:13:24.694Z,6.82
2022-11-12T22:15:58.943Z,5.82
2022-11-12T22:18:48.365Z,5.82
2022-11-12T22:21:38.611Z,8.20
2022-11-12T22:24:25.497Z,14.77
2022-11-12T22:27:10.833Z,9.30
2022-11-12T22:29:56.309Z,8.93
2022-11-12T22:32:41.799Z,6.75
2022-11-12T22:35:27.087Z,8.80
2022-11-12T22:38:12.675Z,6.15
2022-11-12T22:41:04.279Z,5.10
2022-11-12T22:43:53.009Z,4.47
2022-11-12T22:46:38.646Z,9.68
2022-11-12T22:49:24.126Z,5.72
2022-11-12T22:52:09.558Z,6.43
2022-11-12T22:54:54.773Z,5.40
2022-11-12T22:57:40.834Z,6.55
2022-11-12T23:00:32.217Z,6.28
2022-11-12T23:03:17.921Z,7.88
2022-11-12T23:06:05.994Z,6.72
2022-11-12T23:08:53.123Z,8.57
2022-11-12T23:11:38.747Z,7.07
2022-11-12T23:14:24.771Z,8.15
2022-11-12T23:17:10.365Z,6.35
2022-11-12T23:19:55.733Z,8.57
2022-11-12T23:22:41.251Z,7.68
2022-11-12T23:25:26.610Z,13.10
2022-11-12T23:28:12.187Z,9.80
2022-11-12T23:30:57.799Z,16.45
2022-11-12T23:33:53.335Z,12.93
2022-11-12T23:36:38.828Z,26.83
2022-11-12T23:39:24.493Z,34.28
2022-11-12T23:42:09.962Z,14.82
2022-11-12T23:44:55.442Z,14.18
2022-11-12T23:47:41.323Z,5.45
2022-11-12T23:50:26.794Z,10.00
2022-11-12T23:53:12.623Z,8.57
2022-11-12T23:55:58.142Z,14.55
2022-11-12T23:58:44.758Z,10.70
